Terminal Aerodrome Forecast
Issued by NWS

Home | Current Version | Previous Version | Text Only | Print | Product List | Glossary On
Versions: 1 2 3 4 5 6 7 8 9 10 11 12 13 14 15 16 17 18 19 20 21 22 23 24 25 26 27 28 29 30 31 32 33 34 35 36 37 38 39 40 41 42
000
FTUS41 KGYX 242320
TAFMHT
TAF
KMHT 242320Z 2500/2524 18007KT P6SM FEW050 FEW250 WS020/24040KT
     FM250400 18005KT 4SM BR BKN015 BKN025 WS020/24040KT
     FM250600 VRB03KT 1/4SM FG BKN003 BKN025
     FM251500 16007KT 3SM BR BKN008 BKN050
     FM251600 16006KT P6SM -SHRA BKN015 BKN045=

USA.gov is the U.S. government's official web portal to all federal, state and local government web resources and services.